Time;durP1;ratioP1;P1;durP2;ratioP2;P2;SDS_P1;SDS_P2;PMS_P1;PMS_P2;Temp;Humidity;BMP_temperature;BMP_pressure;BME280_temperature;BME280_humidity;BME280_pressure;Samples;Min_cycle;Max_cycle;Signal;HPM_P1;HPM_P2
2023/12/10 00:00:43;;;;;;;34.78;6.22;;;;;;;;;;4920161;29;20023;-78
2023/12/10 00:03:09;;;;;;;42.15;6.88;;;;;;;;;;4903403;29;20055;-78
2023/12/10 00:05:35;;;;;;;33.40;5.10;;;;;;;;;;4915056;29;20024;-75
2023/12/10 00:08:01;;;;;;;33.72;6.40;;;;;;;;;;4901798;29;20494;-78
2023/12/10 00:10:27;;;;;;;33.00;6.18;;;;;;;;;;4910822;29;20382;-78
2023/12/10 00:12:53;;;;;;;38.53;5.50;;;;;;;;;;4910856;29;20051;-78
2023/12/10 00:15:19;;;;;;;38.67;6.15;;;;;;;;;;4917563;29;20118;-77
2023/12/10 00:17:45;;;;;;;41.55;5.45;;;;;;;;;;4909854;29;20493;-76
2023/12/10 00:20:12;;;;;;;34.90;6.00;;;;;;;;;;4909625;29;20063;-78
2023/12/10 00:22:38;;;;;;;40.50;6.53;;;;;;;;;;4896031;29;20088;-76
2023/12/10 00:25:04;;;;;;;37.75;5.72;;;;;;;;;;4912407;29;20091;-77
2023/12/10 00:27:30;;;;;;;29.40;4.57;;;;;;;;;;4908275;29;20036;-77
2023/12/10 00:29:56;;;;;;;32.13;5.75;;;;;;;;;;4898821;29;20483;-82
2023/12/10 00:32:22;;;;;;;32.67;5.43;;;;;;;;;;4918527;29;20070;-79
2023/12/10 00:34:48;;;;;;;24.48;5.43;;;;;;;;;;4913013;29;20557;-76
2023/12/10 00:37:14;;;;;;;30.35;6.35;;;;;;;;;;4913783;29;20465;-79
2023/12/10 00:39:41;;;;;;;24.67;4.25;;;;;;;;;;4901618;29;20035;-76
2023/12/10 00:42:07;;;;;;;34.47;5.38;;;;;;;;;;4911061;29;20075;-77
2023/12/10 00:44:33;;;;;;;17.92;3.75;;;;;;;;;;4905345;29;20100;-81
2023/12/10 00:46:59;;;;;;;29.92;4.80;;;;;;;;;;4926301;29;20501;-77
2023/12/10 00:49:25;;;;;;;29.65;5.32;;;;;;;;;;4911745;29;20043;-76
2023/12/10 00:51:52;;;;;;;31.48;4.55;;;;;;;;;;4915382;29;20036;-77
2023/12/10 00:54:18;;;;;;;31.20;5.18;;;;;;;;;;4911571;29;20032;-78
2023/12/10 00:56:44;;;;;;;38.83;6.53;;;;;;;;;;4911484;29;20489;-76
2023/12/10 00:59:10;;;;;;;33.40;5.45;;;;;;;;;;4902598;29;20077;-78
2023/12/10 01:01:36;;;;;;;28.63;4.72;;;;;;;;;;4903890;29;20071;-76
2023/12/10 01:04:02;;;;;;;36.40;4.75;;;;;;;;;;4901730;29;20403;-75
2023/12/10 01:06:28;;;;;;;40.38;5.20;;;;;;;;;;4909482;29;20040;-80
2023/12/10 01:08:54;;;;;;;34.42;6.13;;;;;;;;;;4910851;29;20059;-75
2023/12/10 01:11:20;;;;;;;31.52;4.93;;;;;;;;;;4905502;29;20020;-75
2023/12/10 01:13:46;;;;;;;28.65;4.53;;;;;;;;;;4913596;29;20096;-76
2023/12/10 01:16:16;;;;;;;34.92;4.80;;;;;;;;;;4900902;29;20742;-78
2023/12/10 01:18:42;;;;;;;29.83;4.82;;;;;;;;;;4913511;29;20498;-76
2023/12/10 01:21:09;;;;;;;37.15;4.45;;;;;;;;;;4906062;29;20040;-77
2023/12/10 01:23:35;;;;;;;37.38;5.53;;;;;;;;;;4914703;29;20533;-78
2023/12/10 01:26:02;;;;;;;35.03;5.28;;;;;;;;;;4905279;29;20120;-77
2023/12/10 01:28:28;;;;;;;40.38;5.65;;;;;;;;;;4911582;29;20028;-78
2023/12/10 01:30:54;;;;;;;44.47;6.53;;;;;;;;;;4901477;29;20036;-77
2023/12/10 01:33:20;;;;;;;40.50;4.78;;;;;;;;;;4901566;29;20161;-79
2023/12/10 01:35:46;;;;;;;35.38;5.97;;;;;;;;;;4912422;29;20032;-79
2023/12/10 01:38:12;;;;;;;39.97;6.00;;;;;;;;;;4902056;29;20028;-78
2023/12/10 01:40:38;;;;;;;41.30;5.93;;;;;;;;;;4905255;29;20076;-80
2023/12/10 01:43:08;;;;;;;41.83;7.78;;;;;;;;;;4899103;29;20125;-75
2023/12/10 01:45:34;;;;;;;42.92;8.13;;;;;;;;;;4905894;29;20028;-77
2023/12/10 01:48:04;;;;;;;41.03;5.32;;;;;;;;;;4911293;29;20036;-86
2023/12/10 01:50:31;;;;;;;46.00;5.57;;;;;;;;;;4909752;29;20119;-76
2023/12/10 01:52:58;;;;;;;48.10;8.82;;;;;;;;;;4904920;29;20035;-79
2023/12/10 01:55:24;;;;;;;41.75;5.85;;;;;;;;;;4911232;29;20516;-78
2023/12/10 01:57:50;;;;;;;39.00;5.50;;;;;;;;;;4896364;29;20127;-76
2023/12/10 02:00:18;;;;;;;40.55;5.00;;;;;;;;;;4895962;29;20032;-79
2023/12/10 02:02:44;;;;;;;37.50;6.68;;;;;;;;;;4904705;29;20051;-80
2023/12/10 02:05:11;;;;;;;42.35;6.28;;;;;;;;;;4913124;29;20032;-80
2023/12/10 02:07:37;;;;;;;35.03;5.80;;;;;;;;;;4903517;29;20028;-80
2023/12/10 02:10:05;;;;;;;39.00;5.82;;;;;;;;;;4902629;29;20071;-76
2023/12/10 02:12:31;;;;;;;32.47;5.15;;;;;;;;;;4901514;29;20040;-86
2023/12/10 02:14:57;;;;;;;39.03;5.10;;;;;;;;;;4901429;29;20071;-76
2023/12/10 02:17:23;;;;;;;40.95;5.53;;;;;;;;;;4909824;29;20029;-76
2023/12/10 02:19:50;;;;;;;43.90;5.95;;;;;;;;;;4902671;29;20025;-76
2023/12/10 02:22:18;;;;;;;30.80;6.20;;;;;;;;;;4911213;29;20051;-77
2023/12/10 02:24:55;;;;;;;32.42;5.82;;;;;;;;;;4905484;29;20032;-79
2023/12/10 02:27:21;;;;;;;45.45;7.07;;;;;;;;;;4894414;29;20096;-77
2023/12/10 02:29:49;;;;;;;41.42;5.53;;;;;;;;;;4906041;29;20025;-77
2023/12/10 02:32:15;;;;;;;41.75;5.90;;;;;;;;;;4915289;29;20040;-79
2023/12/10 02:34:42;;;;;;;40.13;5.72;;;;;;;;;;4913311;29;20039;-84
2023/12/10 02:37:08;;;;;;;34.38;4.95;;;;;;;;;;4911106;29;20406;-76
2023/12/10 02:39:34;;;;;;;36.55;6.50;;;;;;;;;;4899547;29;20454;-79
2023/12/10 02:42:00;;;;;;;32.92;4.85;;;;;;;;;;4900090;29;20021;-76
2023/12/10 02:44:26;;;;;;;30.45;6.25;;;;;;;;;;4909818;29;20028;-75
2023/12/10 02:46:52;;;;;;;40.92;6.10;;;;;;;;;;4918739;29;20028;-75
2023/12/10 02:49:18;;;;;;;34.72;5.53;;;;;;;;;;4907123;29;20076;-75
2023/12/10 02:51:44;;;;;;;36.80;5.97;;;;;;;;;;4914011;29;20024;-81
2023/12/10 02:54:10;;;;;;;32.13;5.65;;;;;;;;;;4904315;29;20060;-84
2023/12/10 02:56:36;;;;;;;40.92;4.60;;;;;;;;;;4908115;29;20031;-76
2023/12/10 02:59:02;;;;;;;42.92;6.90;;;;;;;;;;4918195;29;20028;-76
2023/12/10 03:01:28;;;;;;;40.42;5.07;;;;;;;;;;4928311;29;20067;-78
2023/12/10 03:03:54;;;;;;;38.00;8.15;;;;;;;;;;4908590;29;20411;-76
2023/12/10 03:06:20;;;;;;;30.08;4.65;;;;;;;;;;4911644;29;20040;-74
2023/12/10 03:08:46;;;;;;;31.45;5.35;;;;;;;;;;4903653;29;20165;-78
2023/12/10 03:11:13;;;;;;;25.13;4.43;;;;;;;;;;4908755;29;20046;-77
2023/12/10 03:13:39;;;;;;;33.38;6.65;;;;;;;;;;4914887;29;20035;-79
2023/12/10 03:16:05;;;;;;;28.27;3.95;;;;;;;;;;4919256;29;20035;-75
2023/12/10 03:18:31;;;;;;;24.67;3.80;;;;;;;;;;4917997;29;20036;-77
2023/12/10 03:20:57;;;;;;;36.83;4.43;;;;;;;;;;4913489;29;20039;-77
2023/12/10 03:23:23;;;;;;;23.52;4.20;;;;;;;;;;4893099;29;20037;-76
2023/12/10 03:25:49;;;;;;;24.77;3.67;;;;;;;;;;4898228;29;20036;-78
2023/12/10 03:28:15;;;;;;;31.08;4.03;;;;;;;;;;4910312;29;20036;-75
2023/12/10 03:30:41;;;;;;;24.73;4.03;;;;;;;;;;4909286;29;20079;-77
2023/12/10 03:33:07;;;;;;;24.77;2.80;;;;;;;;;;4899872;29;20040;-76
2023/12/10 03:35:33;;;;;;;29.45;3.15;;;;;;;;;;4905028;29;20067;-77
2023/12/10 03:37:59;;;;;;;31.55;3.55;;;;;;;;;;4909547;29;20032;-79
2023/12/10 03:40:25;;;;;;;23.92;3.60;;;;;;;;;;4901455;29;20036;-75
2023/12/10 03:42:51;;;;;;;31.95;3.47;;;;;;;;;;4902036;29;20703;-75
2023/12/10 03:45:17;;;;;;;26.15;3.05;;;;;;;;;;4914363;29;20036;-78
2023/12/10 03:47:46;;;;;;;26.77;4.47;;;;;;;;;;4911456;29;20024;-76
2023/12/10 03:50:13;;;;;;;34.35;5.00;;;;;;;;;;4906779;29;20645;-78
2023/12/10 03:52:39;;;;;;;30.77;3.58;;;;;;;;;;4928049;29;20036;-82
2023/12/10 03:55:06;;;;;;;35.20;4.72;;;;;;;;;;4913508;29;20417;-76
2023/12/10 03:57:32;;;;;;;25.60;3.55;;;;;;;;;;4898420;29;20591;-74
2023/12/10 03:59:58;;;;;;;23.10;4.30;;;;;;;;;;4905519;29;20024;-75
2023/12/10 04:02:24;;;;;;;24.30;4.55;;;;;;;;;;4890978;29;20064;-73
2023/12/10 04:04:50;;;;;;;32.70;4.78;;;;;;;;;;4919183;29;20040;-78
2023/12/10 04:07:16;;;;;;;26.65;4.68;;;;;;;;;;4909883;29;20144;-74
2023/12/10 04:09:42;;;;;;;35.08;5.07;;;;;;;;;;4896627;29;20041;-78
2023/12/10 04:12:08;;;;;;;42.72;5.43;;;;;;;;;;4908207;29;20036;-82
2023/12/10 04:14:35;;;;;;;45.92;7.05;;;;;;;;;;4909839;29;20051;-74
2023/12/10 04:17:01;;;;;;;31.83;4.55;;;;;;;;;;4908402;29;20048;-78
2023/12/10 04:19:27;;;;;;;41.58;5.72;;;;;;;;;;4904637;29;20029;-78
2023/12/10 04:21:53;;;;;;;46.80;6.53;;;;;;;;;;4896453;29;20029;-76
2023/12/10 04:24:20;;;;;;;35.47;4.88;;;;;;;;;;4905829;29;20032;-77
2023/12/10 04:26:46;;;;;;;54.17;6.00;;;;;;;;;;4915039;29;20020;-81
2023/12/10 04:29:12;;;;;;;43.42;5.13;;;;;;;;;;4909073;29;20043;-76
2023/12/10 04:31:38;;;;;;;42.13;5.82;;;;;;;;;;4922969;29;20023;-79
2023/12/10 04:34:04;;;;;;;45.33;6.35;;;;;;;;;;4911809;29;20456;-78
2023/12/10 04:36:30;;;;;;;37.15;5.88;;;;;;;;;;4914041;29;20032;-76
2023/12/10 04:38:56;;;;;;;46.50;6.40;;;;;;;;;;4910707;29;20030;-75
2023/12/10 04:41:22;;;;;;;63.55;6.43;;;;;;;;;;4897862;29;20061;-76
2023/12/10 04:43:49;;;;;;;40.20;5.65;;;;;;;;;;4900803;29;20039;-78
2023/12/10 04:46:16;;;;;;;47.20;6.65;;;;;;;;;;4911533;29;20028;-79
2023/12/10 04:48:43;;;;;;;50.25;7.65;;;;;;;;;;4896680;29;20060;-78
2023/12/10 04:51:09;;;;;;;45.85;5.72;;;;;;;;;;4907849;29;20510;-78
2023/12/10 04:53:36;;;;;;;38.72;5.80;;;;;;;;;;4913651;29;20047;-76
2023/12/10 04:56:02;;;;;;;43.30;6.35;;;;;;;;;;4901980;29;20556;-79
2023/12/10 04:58:29;;;;;;;51.03;9.15;;;;;;;;;;4912711;29;20028;-84
2023/12/10 05:00:55;;;;;;;43.83;4.82;;;;;;;;;;4907515;29;20024;-76
2023/12/10 05:03:21;;;;;;;41.50;6.50;;;;;;;;;;4908052;29;20100;-77
2023/12/10 05:05:47;;;;;;;43.45;6.30;;;;;;;;;;4900339;29;20032;-76
2023/12/10 05:08:13;;;;;;;45.53;6.30;;;;;;;;;;4892430;29;20037;-76
2023/12/10 05:10:39;;;;;;;33.78;4.68;;;;;;;;;;4903242;29;20097;-76
2023/12/10 05:13:06;;;;;;;37.95;6.32;;;;;;;;;;4908098;29;20040;-79
2023/12/10 05:15:32;;;;;;;45.30;6.38;;;;;;;;;;4913206;29;20031;-76
2023/12/10 05:17:59;;;;;;;46.70;5.50;;;;;;;;;;4912443;29;20040;-79
2023/12/10 05:20:25;;;;;;;38.83;5.30;;;;;;;;;;4908233;29;20115;-76
2023/12/10 05:22:52;;;;;;;40.80;5.28;;;;;;;;;;4899846;29;20044;-77
2023/12/10 05:25:18;;;;;;;36.42;4.40;;;;;;;;;;4912741;29;20022;-81
2023/12/10 05:27:44;;;;;;;24.42;4.10;;;;;;;;;;4909798;29;20040;-78
2023/12/10 05:30:11;;;;;;;23.27;4.40;;;;;;;;;;4910237;29;20032;-78
2023/12/10 05:32:37;;;;;;;22.85;3.65;;;;;;;;;;4896495;29;20035;-79
2023/12/10 05:35:04;;;;;;;28.80;4.38;;;;;;;;;;4895537;29;20049;-78
2023/12/10 05:37:30;;;;;;;26.77;3.92;;;;;;;;;;4899567;29;20088;-78
2023/12/10 05:39:57;;;;;;;28.42;3.90;;;;;;;;;;4905055;29;20474;-76
2023/12/10 05:42:23;;;;;;;25.08;2.95;;;;;;;;;;4899501;29;20032;-78
2023/12/10 05:44:49;;;;;;;30.38;3.88;;;;;;;;;;4903722;29;20038;-80
2023/12/10 05:47:15;;;;;;;25.60;3.65;;;;;;;;;;4899326;29;20044;-76
2023/12/10 05:49:41;;;;;;;30.77;3.70;;;;;;;;;;4907430;29;20032;-79
2023/12/10 05:52:07;;;;;;;26.45;3.50;;;;;;;;;;4906794;29;20063;-76
2023/12/10 05:54:33;;;;;;;29.00;3.70;;;;;;;;;;4912374;29;20036;-76
2023/12/10 05:56:59;;;;;;;22.15;3.08;;;;;;;;;;4907706;29;20096;-75
2023/12/10 05:59:25;;;;;;;17.42;2.38;;;;;;;;;;4900621;29;20047;-76
2023/12/10 06:01:51;;;;;;;24.50;2.88;;;;;;;;;;4920438;29;20561;-80
2023/12/10 06:04:17;;;;;;;18.77;3.17;;;;;;;;;;4890048;29;20398;-76
2023/12/10 06:06:43;;;;;;;18.77;2.30;;;;;;;;;;4894895;29;20055;-79
2023/12/10 06:09:10;;;;;;;16.92;2.28;;;;;;;;;;4901132;29;20088;-76
2023/12/10 06:11:36;;;;;;;20.52;2.30;;;;;;;;;;4904099;29;20103;-77
2023/12/10 06:14:02;;;;;;;17.83;2.97;;;;;;;;;;4902037;29;20044;-76
2023/12/10 06:16:28;;;;;;;19.17;2.10;;;;;;;;;;4905969;29;20611;-78
2023/12/10 06:18:54;;;;;;;8.63;1.58;;;;;;;;;;4883166;29;20548;-75
2023/12/10 06:21:21;;;;;;;16.00;1.67;;;;;;;;;;4903682;29;20040;-78
2023/12/10 06:23:47;;;;;;;16.83;2.03;;;;;;;;;;4895539;29;20037;-78
2023/12/10 06:26:13;;;;;;;11.48;1.80;;;;;;;;;;4907047;29;20032;-78
2023/12/10 06:28:39;;;;;;;11.45;2.38;;;;;;;;;;4886813;29;20400;-76
2023/12/10 06:31:05;;;;;;;19.75;2.97;;;;;;;;;;4900914;29;20732;-78
2023/12/10 06:33:31;;;;;;;20.50;2.97;;;;;;;;;;4897594;29;20048;-81
2023/12/10 06:35:57;;;;;;;29.48;3.95;;;;;;;;;;4910505;29;20040;-80
2023/12/10 06:38:23;;;;;;;26.33;4.00;;;;;;;;;;4916786;29;20047;-79
2023/12/10 06:40:49;;;;;;;32.67;4.35;;;;;;;;;;4901763;29;20032;-83
2023/12/10 06:43:15;;;;;;;30.38;4.38;;;;;;;;;;4897739;29;20677;-77
2023/12/10 06:45:42;;;;;;;30.30;3.63;;;;;;;;;;4910668;29;20067;-79
2023/12/10 06:48:08;;;;;;;32.13;3.90;;;;;;;;;;4916402;29;20032;-77
2023/12/10 06:50:34;;;;;;;35.33;3.63;;;;;;;;;;4905892;29;20037;-78
2023/12/10 06:53:00;;;;;;;31.02;3.25;;;;;;;;;;4896707;29;20025;-77
2023/12/10 06:55:26;;;;;;;30.13;4.78;;;;;;;;;;4903359;29;20391;-79
2023/12/10 06:57:53;;;;;;;36.28;5.40;;;;;;;;;;4903429;29;20447;-80
2023/12/10 07:00:19;;;;;;;38.85;4.18;;;;;;;;;;4909190;29;20427;-81
2023/12/10 07:02:45;;;;;;;33.85;5.40;;;;;;;;;;4935366;29;20059;-77
2023/12/10 07:05:12;;;;;;;43.33;5.03;;;;;;;;;;4914355;29;20040;-85
2023/12/10 07:07:38;;;;;;;28.17;4.20;;;;;;;;;;4898597;29;20028;-80
2023/12/10 07:10:04;;;;;;;41.97;5.53;;;;;;;;;;4906113;29;20028;-78
2023/12/10 07:12:30;;;;;;;35.88;5.07;;;;;;;;;;4902654;29;20398;-78
2023/12/10 07:14:56;;;;;;;29.80;4.43;;;;;;;;;;4914497;29;20020;-80
2023/12/10 07:17:22;;;;;;;42.47;5.10;;;;;;;;;;4902529;29;20123;-80
2023/12/10 07:19:49;;;;;;;34.08;4.38;;;;;;;;;;4904770;29;20028;-84
2023/12/10 07:22:15;;;;;;;32.92;4.35;;;;;;;;;;4901722;29;20056;-78
2023/12/10 07:24:41;;;;;;;31.25;3.92;;;;;;;;;;4898006;29;20029;-80
2023/12/10 07:27:07;;;;;;;39.45;5.15;;;;;;;;;;4897245;29;20040;-78
2023/12/10 07:29:33;;;;;;;30.90;5.72;;;;;;;;;;4907380;29;20043;-77
2023/12/10 07:31:59;;;;;;;38.15;5.60;;;;;;;;;;4906977;29;20028;-87
2023/12/10 07:34:25;;;;;;;30.73;3.67;;;;;;;;;;4911695;29;20115;-78
2023/12/10 07:36:51;;;;;;;33.10;5.00;;;;;;;;;;4899896;29;20046;-79
2023/12/10 07:39:18;;;;;;;37.08;4.32;;;;;;;;;;4910588;29;20115;-79
2023/12/10 07:41:45;;;;;;;31.63;6.10;;;;;;;;;;4904845;29;20029;-84
2023/12/10 07:44:11;;;;;;;30.27;4.38;;;;;;;;;;4909924;29;20040;-78
2023/12/10 07:46:37;;;;;;;38.30;13.02;;;;;;;;;;4911291;29;20029;-83
2023/12/10 07:49:03;;;;;;;47.95;8.38;;;;;;;;;;4910709;29;20044;-78
2023/12/10 07:51:29;;;;;;;29.55;3.67;;;;;;;;;;4910207;29;20135;-77
2023/12/10 07:53:55;;;;;;;29.35;3.92;;;;;;;;;;4891293;29;20442;-80
2023/12/10 07:56:21;;;;;;;32.63;5.00;;;;;;;;;;4907291;29;20398;-80
2023/12/10 07:58:47;;;;;;;31.85;4.65;;;;;;;;;;4902309;29;20035;-80
2023/12/10 08:01:13;;;;;;;42.47;4.63;;;;;;;;;;4914019;29;20067;-79
2023/12/10 08:03:39;;;;;;;30.60;4.00;;;;;;;;;;4910536;29;20139;-79
2023/12/10 08:06:06;;;;;;;38.35;5.20;;;;;;;;;;4903512;29;20040;-78
2023/12/10 08:08:32;;;;;;;41.55;5.18;;;;;;;;;;4907057;29;20040;-79
2023/12/10 08:10:58;;;;;;;46.58;6.05;;;;;;;;;;4911621;29;20051;-79
2023/12/10 08:13:24;;;;;;;35.17;6.57;;;;;;;;;;4896657;29;20095;-78
2023/12/10 08:15:50;;;;;;;41.65;4.97;;;;;;;;;;4914218;29;20530;-78
2023/12/10 08:18:16;;;;;;;32.75;5.82;;;;;;;;;;4905288;29;20420;-77
2023/12/10 08:20:42;;;;;;;35.50;4.43;;;;;;;;;;4904973;29;20087;-75
2023/12/10 08:23:08;;;;;;;27.05;4.88;;;;;;;;;;4910181;29;20028;-74
2023/12/10 08:25:34;;;;;;;33.88;4.43;;;;;;;;;;4913071;29;20028;-76
2023/12/10 08:28:00;;;;;;;30.60;4.20;;;;;;;;;;4896170;29;20703;-79
2023/12/10 08:30:26;;;;;;;34.13;4.45;;;;;;;;;;4907520;29;20039;-77
2023/12/10 08:32:52;;;;;;;32.42;5.63;;;;;;;;;;4908618;29;20467;-77
2023/12/10 08:35:19;;;;;;;22.38;3.25;;;;;;;;;;4903799;29;20056;-78
2023/12/10 08:37:45;;;;;;;28.42;3.65;;;;;;;;;;4918424;29;20024;-77
2023/12/10 08:40:11;;;;;;;23.63;4.10;;;;;;;;;;4917494;29;20036;-77
2023/12/10 08:42:37;;;;;;;27.77;3.78;;;;;;;;;;4908033;29;20056;-78
2023/12/10 08:45:03;;;;;;;30.92;3.50;;;;;;;;;;4910412;29;20040;-78
2023/12/10 08:47:29;;;;;;;18.08;3.53;;;;;;;;;;4901512;29;20075;-78
2023/12/10 08:49:55;;;;;;;32.58;3.63;;;;;;;;;;4903855;29;20040;-78
2023/12/10 08:52:23;;;;;;;20.20;3.97;;;;;;;;;;4904320;29;20028;-78
2023/12/10 08:54:49;;;;;;;28.30;4.90;;;;;;;;;;4907746;29;20727;-79
2023/12/10 08:57:16;;;;;;;30.30;4.63;;;;;;;;;;4916914;29;20522;-76
2023/12/10 08:59:42;;;;;;;32.63;5.03;;;;;;;;;;4908451;29;20039;-78
2023/12/10 09:02:08;;;;;;;30.15;4.78;;;;;;;;;;4899049;29;20032;-77
2023/12/10 09:04:34;;;;;;;23.17;3.70;;;;;;;;;;4904000;29;20394;-77
2023/12/10 09:07:00;;;;;;;22.23;3.13;;;;;;;;;;4904437;29;20028;-77
2023/12/10 09:09:28;;;;;;;24.35;3.35;;;;;;;;;;4906286;29;20033;-77
2023/12/10 09:11:54;;;;;;;25.05;3.40;;;;;;;;;;4901165;29;20059;-78
2023/12/10 09:14:21;;;;;;;25.38;3.67;;;;;;;;;;4907055;29;20032;-74
2023/12/10 09:16:47;;;;;;;28.58;3.97;;;;;;;;;;4918635;29;20032;-80
2023/12/10 09:19:14;;;;;;;32.90;6.90;;;;;;;;;;4905218;29;20039;-76
2023/12/10 09:21:40;;;;;;;30.98;3.78;;;;;;;;;;4901267;29;20037;-76
2023/12/10 09:24:07;;;;;;;18.90;3.03;;;;;;;;;;4903685;29;20043;-76
2023/12/10 09:26:34;;;;;;;21.75;3.95;;;;;;;;;;4908444;29;20051;-80
2023/12/10 09:29:00;;;;;;;20.42;2.60;;;;;;;;;;4899850;29;20588;-79
2023/12/10 09:31:27;;;;;;;19.75;3.22;;;;;;;;;;4912733;29;20035;-82
2023/12/10 09:33:53;;;;;;;21.25;3.72;;;;;;;;;;4901774;29;20035;-78
2023/12/10 09:36:19;;;;;;;28.60;3.90;;;;;;;;;;4903172;29;20041;-77
2023/12/10 09:38:45;;;;;;;29.90;4.18;;;;;;;;;;4904953;29;20063;-82
2023/12/10 09:41:11;;;;;;;26.15;4.78;;;;;;;;;;4912403;29;20047;-77
2023/12/10 09:43:37;;;;;;;21.80;4.00;;;;;;;;;;4907901;29;20036;-75
2023/12/10 09:46:04;;;;;;;30.10;5.55;;;;;;;;;;4903133;29;20051;-77
2023/12/10 09:48:31;;;;;;;37.13;5.03;;;;;;;;;;4906062;29;20043;-75
2023/12/10 09:50:57;;;;;;;39.70;6.90;;;;;;;;;;4900600;29;20028;-71
2023/12/10 09:53:23;;;;;;;53.10;7.07;;;;;;;;;;4916077;29;20438;-77
2023/12/10 09:55:49;;;;;;;44.08;6.35;;;;;;;;;;4894716;29;20063;-74
2023/12/10 09:58:15;;;;;;;53.20;7.97;;;;;;;;;;4900453;29;20032;-75
2023/12/10 10:00:42;;;;;;;42.63;6.57;;;;;;;;;;4908111;29;20068;-76
2023/12/10 10:03:08;;;;;;;48.63;7.38;;;;;;;;;;4898514;29;20044;-76
2023/12/10 10:05:34;;;;;;;44.70;5.38;;;;;;;;;;4898870;29;20081;-73
2023/12/10 10:08:00;;;;;;;51.05;6.18;;;;;;;;;;4910909;29;20035;-72
2023/12/10 10:10:26;;;;;;;48.17;6.32;;;;;;;;;;4902852;29;20036;-76
2023/12/10 10:12:56;;;;;;;48.42;6.90;;;;;;;;;;4907461;29;20060;-79
2023/12/10 10:15:27;;;;;;;49.08;6.80;;;;;;;;;;4902200;29;20036;-72
2023/12/10 10:17:53;;;;;;;46.33;6.75;;;;;;;;;;4912393;29;20042;-75
2023/12/10 10:20:21;;;;;;;51.78;6.50;;;;;;;;;;4904625;29;20033;-71
2023/12/10 10:22:48;;;;;;;39.63;7.35;;;;;;;;;;4912664;29;20036;-76
2023/12/10 10:25:14;;;;;;;45.45;6.95;;;;;;;;;;4898611;29;20401;-75
2023/12/10 10:27:40;;;;;;;48.58;6.40;;;;;;;;;;4908837;29;20043;-77
2023/12/10 10:30:07;;;;;;;47.72;7.05;;;;;;;;;;4903910;29;20080;-76
2023/12/10 10:32:33;;;;;;;39.55;5.50;;;;;;;;;;4900286;29;20021;-75
2023/12/10 10:35:01;;;;;;;46.50;7.22;;;;;;;;;;4902953;29;20028;-74
2023/12/10 10:37:27;;;;;;;42.40;8.23;;;;;;;;;;4897430;29;20036;-76
2023/12/10 10:39:53;;;;;;;47.55;7.28;;;;;;;;;;4902973;29;20028;-73
2023/12/10 10:42:19;;;;;;;47.00;8.18;;;;;;;;;;4906871;29;20036;-82
2023/12/10 10:44:46;;;;;;;57.42;8.48;;;;;;;;;;4908458;29;20032;-73
2023/12/10 10:47:12;;;;;;;42.38;5.18;;;;;;;;;;4912686;29;20048;-72
2023/12/10 10:49:40;;;;;;;40.50;5.88;;;;;;;;;;4904226;29;20431;-79
2023/12/10 10:52:09;;;;;;;44.78;8.40;;;;;;;;;;4899938;29;20163;-76
2023/12/10 10:54:36;;;;;;;52.22;7.75;;;;;;;;;;4897909;29;20032;-75
2023/12/10 10:57:02;;;;;;;48.85;7.18;;;;;;;;;;4904240;29;20033;-75
2023/12/10 10:59:32;;;;;;;61.53;8.35;;;;;;;;;;4900436;29;20033;-74
2023/12/10 11:01:59;;;;;;;47.80;6.95;;;;;;;;;;4907671;29;20032;-76
2023/12/10 11:04:33;;;;;;;43.10;6.20;;;;;;;;;;4894425;29;20060;-78
2023/12/10 11:07:00;;;;;;;45.05;5.70;;;;;;;;;;4903591;29;20059;-80
2023/12/10 11:09:28;;;;;;;33.97;6.75;;;;;;;;;;4907632;29;20640;-75
2023/12/10 11:11:54;;;;;;;37.42;6.95;;;;;;;;;;4901330;29;20478;-77
2023/12/10 11:14:20;;;;;;;51.33;6.18;;;;;;;;;;4912724;29;20438;-76
2023/12/10 11:16:50;;;;;;;42.22;5.85;;;;;;;;;;4904038;29;20494;-76
2023/12/10 11:19:21;;;;;;;43.15;7.82;;;;;;;;;;4907846;29;20064;-76
2023/12/10 11:21:48;;;;;;;40.92;7.10;;;;;;;;;;4908160;29;20032;-79
2023/12/10 11:24:15;;;;;;;50.65;7.43;;;;;;;;;;4906769;29;20041;-78
2023/12/10 11:26:41;;;;;;;42.03;7.80;;;;;;;;;;4907064;29;20025;-77
2023/12/10 11:29:07;;;;;;;44.92;6.15;;;;;;;;;;4909296;29;20434;-74
2023/12/10 11:31:35;;;;;;;33.75;6.13;;;;;;;;;;4909263;29;20036;-74
2023/12/10 11:34:01;;;;;;;48.38;8.30;;;;;;;;;;4904871;29;20453;-77
2023/12/10 11:36:27;;;;;;;44.65;8.82;;;;;;;;;;4905374;29;20036;-78
2023/12/10 11:38:53;;;;;;;47.42;9.52;;;;;;;;;;4907946;29;20044;-77
2023/12/10 11:41:19;;;;;;;51.17;8.85;;;;;;;;;;4907867;29;20036;-75
2023/12/10 11:43:48;;;;;;;45.83;8.00;;;;;;;;;;4903757;29;20036;-77
2023/12/10 11:46:23;;;;;;;36.42;5.57;;;;;;;;;;4912367;29;20088;-75
2023/12/10 11:48:56;;;;;;;37.72;6.80;;;;;;;;;;4900259;29;20041;-72
2023/12/10 11:51:22;;;;;;;32.00;6.22;;;;;;;;;;4903438;29;20131;-76
2023/12/10 11:53:49;;;;;;;41.55;8.20;;;;;;;;;;4897351;29;20067;-78
2023/12/10 11:56:15;;;;;;;42.33;9.32;;;;;;;;;;4910459;29;20032;-75
2023/12/10 11:58:44;;;;;;;37.42;8.45;;;;;;;;;;4906945;29;20054;-73
2023/12/10 12:01:11;;;;;;;56.35;16.95;;;;;;;;;;4920426;29;20031;-75
2023/12/10 12:03:37;;;;;;;34.97;6.00;;;;;;;;;;4900799;29;20057;-73
2023/12/10 12:06:04;;;;;;;35.38;6.00;;;;;;;;;;4906214;29;20043;-81
2023/12/10 12:08:30;;;;;;;29.25;6.78;;;;;;;;;;4912258;29;20032;-81
2023/12/10 12:10:57;;;;;;;33.13;8.38;;;;;;;;;;4915795;29;20032;-76
2023/12/10 12:13:24;;;;;;;35.92;6.93;;;;;;;;;;4901725;29;20040;-73
2023/12/10 12:15:51;;;;;;;44.67;7.20;;;;;;;;;;4916747;29;20035;-79
2023/12/10 12:18:17;;;;;;;33.58;6.70;;;;;;;;;;4904629;29;20035;-76
2023/12/10 12:20:46;;;;;;;41.03;6.07;;;;;;;;;;4914743;29;20075;-76
2023/12/10 12:23:13;;;;;;;33.70;7.25;;;;;;;;;;4907730;29;20108;-78
2023/12/10 12:25:39;;;;;;;36.45;5.68;;;;;;;;;;4907970;29;20029;-76
2023/12/10 12:28:06;;;;;;;31.65;5.10;;;;;;;;;;4901865;29;20075;-77
2023/12/10 12:30:33;;;;;;;42.58;7.78;;;;;;;;;;4907162;29;20028;-77
2023/12/10 12:32:59;;;;;;;29.88;6.47;;;;;;;;;;4904756;29;20075;-77
2023/12/10 12:35:26;;;;;;;31.15;5.35;;;;;;;;;;4904137;29;20082;-76
2023/12/10 12:37:52;;;;;;;38.80;6.03;;;;;;;;;;4905774;29;20024;-75
2023/12/10 12:40:20;;;;;;;30.23;4.72;;;;;;;;;;4903890;29;20486;-76
2023/12/10 12:42:46;;;;;;;28.83;6.47;;;;;;;;;;4905566;29;20071;-75
2023/12/10 12:45:12;;;;;;;29.15;4.38;;;;;;;;;;4909076;29;20036;-76
2023/12/10 12:47:38;;;;;;;30.30;5.75;;;;;;;;;;4909943;29;20035;-79
2023/12/10 12:50:06;;;;;;;30.75;4.47;;;;;;;;;;4903157;29;20088;-77
2023/12/10 12:52:32;;;;;;;33.72;5.25;;;;;;;;;;4908900;29;20024;-78
2023/12/10 12:54:58;;;;;;;30.48;4.68;;;;;;;;;;4908460;29;20098;-78
2023/12/10 12:57:24;;;;;;;27.45;5.65;;;;;;;;;;4905534;29;20044;-77
2023/12/10 12:59:50;;;;;;;26.95;4.90;;;;;;;;;;4906630;29;20024;-79
2023/12/10 13:02:18;;;;;;;29.52;3.90;;;;;;;;;;4910093;29;20044;-78
2023/12/10 13:04:44;;;;;;;22.23;3.58;;;;;;;;;;4911645;29;22364;-74
2023/12/10 13:07:10;;;;;;;25.40;4.38;;;;;;;;;;4909676;29;20032;-74
2023/12/10 13:09:36;;;;;;;22.33;4.25;;;;;;;;;;4896946;29;20035;-74
2023/12/10 13:12:03;;;;;;;28.58;4.00;;;;;;;;;;4902966;29;20079;-79
2023/12/10 13:14:29;;;;;;;25.55;3.10;;;;;;;;;;4914485;29;20377;-76
2023/12/10 13:16:55;;;;;;;25.70;5.68;;;;;;;;;;4904915;29;20127;-76
2023/12/10 13:19:21;;;;;;;31.50;5.90;;;;;;;;;;4914695;29;20028;-75
2023/12/10 13:21:50;;;;;;;28.50;3.67;;;;;;;;;;4907044;29;20037;-75
2023/12/10 13:24:16;;;;;;;30.10;3.85;;;;;;;;;;4912848;29;20529;-76
2023/12/10 13:26:42;;;;;;;26.25;3.92;;;;;;;;;;4910440;29;20039;-78
2023/12/10 13:29:10;;;;;;;30.55;4.18;;;;;;;;;;4899171;29;20036;-75
2023/12/10 13:31:36;;;;;;;25.50;4.13;;;;;;;;;;4926343;29;20028;-76
2023/12/10 13:34:04;;;;;;;31.15;4.22;;;;;;;;;;4932226;29;20130;-80
2023/12/10 13:36:30;;;;;;;24.20;3.45;;;;;;;;;;4921382;29;20246;-78
2023/12/10 13:38:56;;;;;;;30.10;3.55;;;;;;;;;;4908694;29;20032;-77
2023/12/10 13:41:24;;;;;;;32.55;5.28;;;;;;;;;;4906404;29;20111;-75
2023/12/10 13:43:50;;;;;;;20.02;4.15;;;;;;;;;;4914239;29;20032;-74
2023/12/10 13:46:16;;;;;;;20.33;3.33;;;;;;;;;;4913618;29;20431;-75
2023/12/10 13:48:42;;;;;;;23.98;3.25;;;;;;;;;;4897378;29;20040;-78
2023/12/10 13:51:09;;;;;;;26.42;3.97;;;;;;;;;;4902809;29;20058;-76
2023/12/10 13:53:35;;;;;;;21.75;3.45;;;;;;;;;;4896965;29;20488;-75
2023/12/10 13:56:02;;;;;;;24.00;3.67;;;;;;;;;;4903942;29;20431;-76
2023/12/10 13:58:28;;;;;;;27.33;5.45;;;;;;;;;;4900579;29;20052;-80
2023/12/10 14:00:54;;;;;;;26.85;4.53;;;;;;;;;;4903783;29;20040;-77
2023/12/10 14:03:20;;;;;;;28.48;5.55;;;;;;;;;;4913214;29;20108;-76
2023/12/10 14:05:46;;;;;;;21.05;2.90;;;;;;;;;;4907570;29;20035;-77
2023/12/10 14:08:12;;;;;;;14.65;3.03;;;;;;;;;;4910555;29;20035;-77
2023/12/10 14:10:38;;;;;;;21.10;3.95;;;;;;;;;;4913691;29;20088;-78
2023/12/10 14:13:05;;;;;;;17.05;3.47;;;;;;;;;;4910624;29;20509;-76
2023/12/10 14:15:31;;;;;;;23.02;2.92;;;;;;;;;;4910984;29;20083;-74
2023/12/10 14:17:57;;;;;;;26.00;4.78;;;;;;;;;;4904316;29;20060;-75
2023/12/10 14:20:23;;;;;;;30.77;4.22;;;;;;;;;;4899358;29;20076;-77
2023/12/10 14:22:49;;;;;;;35.00;4.13;;;;;;;;;;4905624;29;20028;-76
2023/12/10 14:25:15;;;;;;;20.33;3.85;;;;;;;;;;4912127;29;20039;-78